Time,TemperatureF,DewpointF,PressureIn,WindDirection,WindDirectionDegrees,WindSpeedMPH,WindSpeedGustMPH,Humidity,HourlyPrecipIn,Conditions,Clouds,dailyrainin,SoftwareType,DateUTC
2013-07-10 00:01:00,50.0,33.0,-100.00,WSW,256,0.0,0.0,52,0.00,,,0.00,,2013-07-10 06:01:00,
2013-07-10 00:11:00,49.0,32.0,-100.00,WSW,256,1.0,3.0,52,0.00,,,0.00,,2013-07-10 06:11:00,
2013-07-10 00:21:00,49.0,33.0,-100.00,WSW,256,0.0,3.0,53,0.00,,,0.00,,2013-07-10 06:21:00,
2013-07-10 00:32:00,49.0,33.0,-100.00,WSW,256,0.0,0.0,53,0.00,,,0.00,,2013-07-10 06:32:00,
2013-07-10 00:42:00,49.0,33.0,-100.00,WSW,256,0.0,0.0,53,0.00,,,0.00,,2013-07-10 06:42:00,
2013-07-10 00:52:00,49.0,33.0,-100.00,WSW,256,0.0,1.0,54,0.00,,,0.00,,2013-07-10 06:52:00,
2013-07-10 01:01:00,48.0,33.0,-100.00,WSW,256,0.0,1.0,55,0.00,,,0.00,,2013-07-10 07:01:00,
2013-07-10 01:11:00,47.0,32.0,-100.00,WSW,256,0.0,0.0,55,0.00,,,0.00,,2013-07-10 07:11:00,
2013-07-10 01:21:00,47.0,32.0,-100.00,WSW,256,0.0,0.0,56,0.00,,,0.00,,2013-07-10 07:21:00,
2013-07-10 01:32:00,46.0,32.0,-100.00,WSW,256,0.0,1.0,57,0.00,,,0.00,,2013-07-10 07:32:00,
2013-07-10 01:43:00,46.0,32.0,-100.00,WSW,256,0.0,1.0,58,0.00,,,0.00,,2013-07-10 07:43:00,
2013-07-10 01:53:00,46.0,32.0,-100.00,WSW,256,0.0,0.0,58,0.00,,,0.00,,2013-07-10 07:53:00,
2013-07-10 02:01:00,46.0,32.0,-100.00,WSW,256,0.0,1.0,58,0.00,,,0.00,,2013-07-10 08:01:00,
2013-07-10 02:11:00,46.0,32.0,-100.00,WSW,256,0.0,1.0,58,0.00,,,0.00,,2013-07-10 08:11:00,
2013-07-10 02:22:00,46.0,32.0,-100.00,WSW,256,0.0,0.0,58,0.00,,,0.00,,2013-07-10 08:22:00,
2013-07-10 02:32:00,45.0,32.0,-100.00,WSW,256,0.0,0.0,59,0.00,,,0.00,,2013-07-10 08:32:00,
2013-07-10 02:42:00,45.0,32.0,-100.00,WSW,256,0.0,1.0,60,0.00,,,0.00,,2013-07-10 08:42:00,
2013-07-10 02:53:00,44.0,31.0,-100.00,WSW,256,0.0,1.0,60,0.00,,,0.00,,2013-07-10 08:53:00,
2013-07-10 03:02:00,44.0,31.0,-100.00,WSW,256,0.0,2.0,61,0.00,,,0.00,,2013-07-10 09:02:00,
2013-07-10 03:12:00,43.0,30.0,-100.00,WSW,256,0.0,0.0,61,0.00,,,0.00,,2013-07-10 09:12:00,
2013-07-10 03:21:00,43.0,31.0,-100.00,WSW,256,0.0,0.0,62,0.00,,,0.00,,2013-07-10 09:21:00,
2013-07-10 03:32:00,42.0,30.0,-100.00,WSW,256,0.0,0.0,63,0.00,,,0.00,,2013-07-10 09:32:00,
2013-07-10 03:42:00,42.0,31.0,-100.00,WSW,256,0.0,1.0,64,0.00,,,0.00,,2013-07-10 09:42:00,
2013-07-10 03:52:00,42.0,31.0,-100.00,WSW,256,0.0,1.0,64,0.00,,,0.00,,2013-07-10 09:52:00,
2013-07-10 04:01:00,42.0,31.0,-100.00,WSW,256,0.0,0.0,65,0.00,,,0.00,,2013-07-10 10:01:00,
2013-07-10 04:32:00,41.0,31.0,-100.00,WSW,256,0.0,1.0,66,0.00,,,0.00,,2013-07-10 10:32:00,
2013-07-10 04:50:00,-999.0,-99.9,-100.00,WSW,256,0.0,0.0,-999,-99.99,,,-99.99,,2013-07-10 10:50:00,
2013-07-10 05:00:00,-999.0,-99.9,-100.00,WSW,256,0.0,2.0,-999,-99.99,,,-99.99,,2013-07-10 11:00:00,
2013-07-10 05:11:00,41.0,31.0,-100.00,WSW,256,0.0,3.0,67,0.00,,,0.00,,2013-07-10 11:11:00,
2013-07-10 05:22:00,40.0,30.0,-100.00,WSW,256,0.0,0.0,67,0.00,,,0.00,,2013-07-10 11:22:00,
2013-07-10 05:33:00,40.0,30.0,-100.00,WSW,256,0.0,0.0,68,0.00,,,0.00,,2013-07-10 11:33:00,
2013-07-10 05:43:00,39.0,30.0,-100.00,WSW,256,0.0,1.0,69,0.00,,,0.00,,2013-07-10 11:43:00,
2013-07-10 05:52:00,39.0,30.0,-100.00,WSW,256,0.0,0.0,69,0.00,,,0.00,,2013-07-10 11:52:00,
2013-07-10 06:01:00,38.0,29.0,-100.00,WSW,256,0.0,1.0,71,0.00,,,0.00,,2013-07-10 12:01:00,
2013-07-10 06:11:00,38.0,29.0,-100.00,WSW,256,0.0,1.0,70,0.00,,,0.00,,2013-07-10 12:11:00,
2013-07-10 06:22:00,38.0,29.0,-100.00,WSW,256,0.0,0.0,71,0.00,,,0.00,,2013-07-10 12:22:00,
2013-07-10 06:32:00,37.0,29.0,-100.00,WSW,256,0.0,1.0,73,0.00,,,0.00,,2013-07-10 12:32:00,
2013-07-10 06:42:00,38.0,30.0,-100.00,WSW,256,0.0,0.0,73,0.00,,,0.00,,2013-07-10 12:42:00,
2013-07-10 06:52:00,38.0,30.0,-100.00,East,92,0.0,5.0,73,0.00,,,0.00,,2013-07-10 12:52:00,
2013-07-10 07:01:00,38.0,30.0,-100.00,East,92,0.0,2.0,73,0.00,,,0.00,,2013-07-10 13:01:00,
2013-07-10 07:11:00,38.0,30.0,-100.00,East,92,0.0,2.0,73,0.00,,,0.00,,2013-07-10 13:11:00,
2013-07-10 07:32:00,43.0,34.0,-100.00,East,92,0.0,1.0,71,0.00,,,0.00,,2013-07-10 13:32:00,
2013-07-10 07:42:00,45.0,35.0,-100.00,East,92,0.0,1.0,67,0.00,,,0.00,,2013-07-10 13:42:00,
2013-07-10 07:52:00,47.0,36.0,-100.00,East,92,0.0,1.0,65,0.00,,,0.00,,2013-07-10 13:52:00,
2013-07-10 08:11:00,52.0,38.0,-100.00,East,92,0.0,1.0,59,0.00,,,0.00,,2013-07-10 14:11:00,
2013-07-10 08:22:00,55.0,38.0,-100.00,ESE,116,0.0,5.0,53,0.00,,,0.00,,2013-07-10 14:22:00,
2013-07-10 08:33:00,57.0,38.0,-100.00,ESE,116,0.0,1.0,48,0.00,,,0.00,,2013-07-10 14:33:00,
2013-07-10 09:34:00,66.0,36.0,-100.00,SW,223,0.0,2.0,33,0.00,,,0.00,,2013-07-10 15:34:00,
2013-07-10 09:42:00,67.0,36.0,-100.00,SW,223,0.0,2.0,32,0.00,,,0.00,,2013-07-10 15:42:00,
2013-07-10 11:01:00,71.0,39.0,-100.00,WNW,296,1.0,6.0,31,0.00,,,0.00,,2013-07-10 17:01:00,
2013-07-10 11:11:00,72.0,38.0,-100.00,WSW,253,1.0,6.0,29,0.00,,,0.00,,2013-07-10 17:11:00,
2013-07-10 11:22:00,72.0,37.0,-100.00,WSW,255,1.0,7.0,28,0.00,,,0.00,,2013-07-10 17:22:00,
2013-07-10 11:32:00,72.0,37.0,-100.00,WNW,284,2.0,7.0,28,0.00,,,0.00,,2013-07-10 17:32:00,
2013-07-10 11:42:00,73.0,37.0,-100.00,WNW,284,4.0,8.0,27,0.00,,,0.00,,2013-07-10 17:42:00,
2013-07-10 11:52:00,73.0,37.0,-100.00,West,269,4.0,6.0,27,0.00,,,0.00,,2013-07-10 17:52:00,
2013-07-10 12:01:00,75.0,39.0,-100.00,ESE,109,2.0,7.0,27,0.00,,,0.00,,2013-07-10 18:01:00,
2013-07-10 12:11:00,77.0,36.0,-100.00,SW,223,1.0,5.0,23,0.00,,,0.00,,2013-07-10 18:11:00,
2013-07-10 12:21:00,80.0,38.0,-100.00,East,100,1.0,5.0,22,0.00,,,0.00,,2013-07-10 18:21:00,
2013-07-10 12:32:00,81.0,35.0,-100.00,South,178,1.0,4.0,19,0.00,,,0.00,,2013-07-10 18:32:00,
2013-07-10 13:11:00,82.0,30.0,-100.00,WNW,288,3.0,7.0,15,0.00,,,0.00,,2013-07-10 19:11:00,
2013-07-10 13:21:00,83.0,31.0,-100.00,SSW,207,0.0,5.0,15,0.00,,,0.00,,2013-07-10 19:21:00,
2013-07-10 13:32:00,85.0,30.0,-100.00,WSW,245,3.0,6.0,14,0.00,,,0.00,,2013-07-10 19:32:00,
2013-07-10 13:42:00,86.0,33.0,-100.00,SSW,212,0.0,8.0,15,0.00,,,0.00,,2013-07-10 19:42:00,
2013-07-10 13:52:00,86.0,31.0,-100.00,WSW,250,1.0,3.0,14,0.00,,,0.00,,2013-07-10 19:52:00,
2013-07-10 14:42:00,82.0,24.0,-100.00,NE,38,5.0,11.0,12,0.00,,,0.00,,2013-07-10 20:42:00,
2013-07-10 15:32:00,85.0,29.0,-100.00,West,269,2.0,6.0,13,0.00,,,0.00,,2013-07-10 21:32:00,
2013-07-10 15:41:00,84.0,24.0,-100.00,ENE,63,1.0,10.0,11,0.00,,,0.00,,2013-07-10 21:41:00,
2013-07-10 15:51:00,86.0,29.0,-100.00,SE,130,1.0,7.0,13,0.00,,,0.00,,2013-07-10 21:51:00,
2013-07-10 16:01:00,86.0,31.0,-100.00,SSE,161,1.0,8.0,14,0.00,,,0.00,,2013-07-10 22:01:00,
2013-07-10 16:11:00,85.0,27.0,-100.00,ESE,113,0.0,4.0,12,0.00,,,0.00,,2013-07-10 22:11:00,
2013-07-10 16:33:00,85.0,25.0,-100.00,WNW,288,1.0,4.0,11,0.00,,,0.00,,2013-07-10 22:33:00,
2013-07-10 16:42:00,85.0,22.0,-100.00,SW,235,1.0,6.0,10,0.00,,,0.00,,2013-07-10 22:42:00,
2013-07-10 16:53:00,86.0,23.0,-100.00,West,269,1.0,7.0,10,0.00,,,0.00,,2013-07-10 22:53:00,
2013-07-10 17:01:00,86.0,25.0,-100.00,West,269,0.0,4.0,11,0.00,,,0.00,,2013-07-10 23:01:00,
2013-07-10 17:11:00,85.0,27.0,-100.00,ESE,121,0.0,3.0,12,0.00,,,0.00,,2013-07-10 23:11:00,
2013-07-10 17:32:00,85.0,27.0,-100.00,SSE,163,0.0,6.0,12,0.00,,,0.00,,2013-07-10 23:32:00,
2013-07-10 17:42:00,85.0,27.0,-100.00,SSE,163,0.0,6.0,12,0.00,,,0.00,,2013-07-10 23:42:00,
2013-07-10 17:52:00,87.0,26.0,-100.00,SE,132,0.0,3.0,11,0.00,,,0.00,,2013-07-10 23:52:00,
2013-07-10 18:01:00,87.0,26.0,-100.00,SSW,192,0.0,3.0,11,0.00,,,0.00,,2013-07-11 00:01:00,
2013-07-10 18:11:00,87.0,26.0,-100.00,SSW,192,0.0,2.0,11,0.00,,,0.00,,2013-07-11 00:11:00,
2013-07-10 18:32:00,85.0,29.0,-100.00,SSW,205,0.0,3.0,13,0.00,,,0.00,,2013-07-11 00:32:00,
2013-07-10 18:42:00,85.0,27.0,-100.00,SSW,206,0.0,1.0,12,0.00,,,0.00,,2013-07-11 00:42:00,
2013-07-10 18:51:00,85.0,29.0,-100.00,SSW,206,0.0,1.0,13,0.00,,,0.00,,2013-07-11 00:51:00,
2013-07-10 19:01:00,84.0,36.0,-100.00,SSW,206,0.0,1.0,18,0.00,,,0.00,,2013-07-11 01:01:00,
2013-07-10 19:22:00,83.0,40.0,-100.00,SSW,206,0.0,1.0,22,0.00,,,0.00,,2013-07-11 01:22:00,
2013-07-10 20:32:00,75.0,48.0,-100.00,SSW,205,0.0,0.0,38,0.00,,,0.00,,2013-07-11 02:32:00,
2013-07-10 20:43:00,75.0,47.0,-100.00,SSW,205,0.0,0.0,37,0.00,,,0.00,,2013-07-11 02:43:00,
2013-07-10 20:53:00,74.0,45.0,-100.00,SSW,205,0.0,0.0,36,0.00,,,0.00,,2013-07-11 02:53:00,
2013-07-10 21:11:00,70.0,45.0,-100.00,SSW,205,0.0,0.0,40,0.00,,,0.00,,2013-07-11 03:11:00,
2013-07-10 21:21:00,69.0,45.0,-100.00,SSW,205,0.0,0.0,42,0.00,,,0.00,,2013-07-11 03:21:00,
2013-07-10 21:33:00,67.0,46.0,-100.00,SSW,205,0.0,0.0,47,0.00,,,0.00,,2013-07-11 03:33:00,
2013-07-10 21:42:00,65.0,44.0,-100.00,SSW,206,0.0,0.0,47,0.00,,,0.00,,2013-07-11 03:42:00,
2013-07-10 21:52:00,63.0,43.0,-100.00,SSW,206,0.0,0.0,48,0.00,,,0.00,,2013-07-11 03:52:00,
2013-07-10 22:11:00,61.0,42.0,-100.00,SSW,206,0.0,0.0,49,0.00,,,0.00,,2013-07-11 04:11:00,
2013-07-10 22:22:00,60.0,41.0,-100.00,SSW,205,0.0,1.0,50,0.00,,,0.00,,2013-07-11 04:22:00,
2013-07-10 22:32:00,60.0,40.0,-100.00,SSW,206,0.0,0.0,48,0.00,,,0.00,,2013-07-11 04:32:00,
2013-07-10 22:42:00,59.0,40.0,-100.00,SSW,206,0.0,1.0,49,0.00,,,0.00,,2013-07-11 04:42:00,
2013-07-10 23:01:00,57.0,38.0,-100.00,SSW,205,0.0,0.0,49,0.00,,,0.00,,2013-07-11 05:01:00,
2013-07-10 23:12:00,57.0,38.0,-100.00,SSW,206,0.0,0.0,49,0.00,,,0.00,,2013-07-11 05:12:00,
2013-07-10 23:32:00,56.0,38.0,-100.00,SSW,206,0.0,0.0,51,0.00,,,0.00,,2013-07-11 05:32:00,
2013-07-10 23:43:00,55.0,37.0,-100.00,SSW,205,0.0,1.0,51,0.00,,,0.00,,2013-07-11 05:43:00,
2013-07-10 23:52:00,55.0,38.0,-100.00,SSW,206,0.0,1.0,52,0.00,,,0.00,,2013-07-11 05:52:00,